createdAt,value
2019-02-24T00:01:00.125Z,4.00
2019-02-24T00:04:01.278Z,3.90
2019-02-24T00:07:02.072Z,3.90
2019-02-24T00:10:03.326Z,3.90
2019-02-24T00:13:03.879Z,3.90
2019-02-24T00:16:04.445Z,3.90
2019-02-24T00:21:51.030Z,3.90
2019-02-24T00:24:52.270Z,3.90
2019-02-24T00:27:53.215Z,3.90
2019-02-24T00:30:53.690Z,3.90
2019-02-24T00:36:39.166Z,3.80
2019-02-24T00:42:24.800Z,3.70
2019-02-24T00:48:10.286Z,3.70
2019-02-24T00:51:11.424Z,3.60
2019-02-24T00:56:56.697Z,3.60
2019-02-24T01:02:41.414Z,3.50
2019-02-24T01:08:27.167Z,3.40
2019-02-24T01:11:27.694Z,3.40
2019-02-24T01:14:28.156Z,3.40
2019-02-24T01:17:28.795Z,3.40
2019-02-24T01:23:14.548Z,3.40
2019-02-24T01:29:00.728Z,3.30
2019-02-24T01:32:01.346Z,3.20
2019-02-24T01:35:02.498Z,3.20
2019-02-24T01:38:03.454Z,3.20
2019-02-24T01:43:49.104Z,3.20
2019-02-24T01:49:55.534Z,3.10
2019-02-24T01:52:56.750Z,3.20
2019-02-24T01:58:41.906Z,3.10
2019-02-24T02:04:26.734Z,3.10
2019-02-24T02:07:28.134Z,3.10
2019-02-24T02:13:13.808Z,3.00
2019-02-24T02:18:59.434Z,3.00
2019-02-24T02:24:44.836Z,3.00
2019-02-24T02:30:29.755Z,2.90
2019-02-24T02:33:31.192Z,2.90
2019-02-24T02:39:16.826Z,2.80
2019-02-24T02:45:01.812Z,2.80
2019-02-24T02:50:41.992Z,2.70
2019-02-24T02:53:43.342Z,2.60
2019-02-24T02:59:28.958Z,2.60
2019-02-24T03:05:14.247Z,2.70
2019-02-24T03:11:00.076Z,2.70
2019-02-24T03:14:01.435Z,2.70
2019-02-24T03:19:46.166Z,2.80
2019-02-24T03:25:31.892Z,2.80
2019-02-24T03:31:17.115Z,2.80
2019-02-24T03:34:18.323Z,2.80
2019-02-24T03:40:03.783Z,2.70
2019-02-24T03:43:04.825Z,2.70
2019-02-24T03:46:05.343Z,2.70
2019-02-24T03:51:50.033Z,2.50
2019-02-24T03:54:51.302Z,2.60
2019-02-24T04:00:35.972Z,2.40
2019-02-24T04:06:21.315Z,2.40
2019-02-24T04:12:07.661Z,2.50
2019-02-24T04:15:08.206Z,2.40
2019-02-24T04:18:27.674Z,2.40
2019-02-24T04:21:28.193Z,2.40
2019-02-24T04:27:17.940Z,2.40
2019-02-24T04:30:18.863Z,2.40
2019-02-24T04:36:03.803Z,2.30
2019-02-24T04:41:48.470Z,2.30
2019-02-24T04:44:49.694Z,2.30
2019-02-24T04:47:50.402Z,2.20
2019-02-24T04:54:02.033Z,2.20
2019-02-24T04:57:03.113Z,2.20
2019-02-24T05:03:42.322Z,2.20
2019-02-24T05:06:42.803Z,2.20
2019-02-24T05:09:44.082Z,2.20
2019-02-24T05:12:45.130Z,2.10
2019-02-24T05:15:46.350Z,2.10
2019-02-24T05:18:47.326Z,2.10
2019-02-24T05:21:48.597Z,2.10
2019-02-24T05:27:36.386Z,2.10
2019-02-24T05:33:21.247Z,2.00
2019-02-24T05:39:06.865Z,2.00
2019-02-24T05:42:07.367Z,1.90
2019-02-24T05:47:52.154Z,1.80
2019-02-24T05:53:36.690Z,1.80
2019-02-24T05:59:21.547Z,1.80
2019-02-24T06:02:22.720Z,1.80
2019-02-24T06:08:08.407Z,1.70
2019-02-24T06:13:52.257Z,1.70
2019-02-24T06:22:49.130Z,1.60
2019-02-24T06:28:34.594Z,1.60
2019-02-24T06:34:14.694Z,1.70
2019-02-24T06:37:15.995Z,1.70
2019-02-24T06:40:16.632Z,1.70
2019-02-24T06:43:17.822Z,1.60
2019-02-24T06:49:02.371Z,1.70
2019-02-24T06:52:03.595Z,1.60
2019-02-24T06:55:04.043Z,1.70
2019-02-24T06:58:05.318Z,1.70
2019-02-24T07:03:50.088Z,1.80
2019-02-24T07:09:35.462Z,1.80
2019-02-24T07:15:20.923Z,1.90
2019-02-24T07:18:21.454Z,2.00
2019-02-24T07:21:22.811Z,2.00
2019-02-24T07:24:23.330Z,2.10
2019-02-24T07:30:08.167Z,2.30
2019-02-24T07:35:53.818Z,2.30
2019-02-24T07:38:54.363Z,2.40
2019-02-24T07:44:39.015Z,2.60
2019-02-24T07:47:40.374Z,2.70
2019-02-24T07:50:41.279Z,2.80
2019-02-24T07:53:42.102Z,2.90
2019-02-24T07:59:27.780Z,3.10
2019-02-24T08:05:13.621Z,3.30
2019-02-24T08:08:16.505Z,3.40
2019-02-24T08:11:16.100Z,3.60
2019-02-24T08:14:17.435Z,3.70
2019-02-24T08:20:02.403Z,4.00
2019-02-24T08:23:03.738Z,4.10
2019-02-24T08:26:04.572Z,4.20
2019-02-24T08:31:50.926Z,4.50
2019-02-24T08:34:53.002Z,4.60
2019-02-24T08:40:38.318Z,4.90
2019-02-24T08:46:23.231Z,5.10
2019-02-24T08:52:09.489Z,5.40
2019-02-24T08:55:10.654Z,5.50
2019-02-24T08:58:12.178Z,5.70
2019-02-24T09:01:12.947Z,5.80
2019-02-24T09:06:57.934Z,6.00
2019-02-24T09:12:43.228Z,6.20
2019-02-24T09:15:44.435Z,6.30
2019-02-24T09:21:29.736Z,6.50
2019-02-24T09:27:15.090Z,6.80
2019-02-24T09:33:00.576Z,7.00
2019-02-24T09:36:01.835Z,7.10
2019-02-24T09:39:03.759Z,7.30
2019-02-24T09:42:04.954Z,7.40
2019-02-24T09:47:50.086Z,7.70
2019-02-24T09:50:52.238Z,7.90
2019-02-24T09:53:52.959Z,8.00
2019-02-24T09:56:53.751Z,8.10
2019-02-24T10:02:39.469Z,8.40
2019-02-24T10:08:25.218Z,8.70
2019-02-24T10:11:26.120Z,8.80
2019-02-24T10:14:27.238Z,8.90
2019-02-24T10:17:28.160Z,9.10
2019-02-24T10:20:29.487Z,9.20
2019-02-24T10:23:30.247Z,9.30
2019-02-24T10:29:14.965Z,9.40
2019-02-24T10:32:16.148Z,9.60
2019-02-24T10:38:01.770Z,9.90
2019-02-24T10:41:03.302Z,9.80
2019-02-24T10:44:04.078Z,10.00
2019-02-24T10:47:10.451Z,10.20
2019-02-24T10:52:56.231Z,10.50
2019-02-24T10:58:41.515Z,10.70
2019-02-24T11:04:31.961Z,10.80
2019-02-24T11:07:35.556Z,11.00
2019-02-24T11:10:36.067Z,11.20
2019-02-24T11:13:36.571Z,11.20
2019-02-24T11:16:37.672Z,11.40
2019-02-24T11:19:38.167Z,11.50
2019-02-24T11:25:24.523Z,11.70
2019-02-24T11:28:25.004Z,12.00
2019-02-24T11:34:15.626Z,12.10
2019-02-24T11:40:01.350Z,12.30
2019-02-24T11:43:02.623Z,12.40
2019-02-24T11:48:47.418Z,12.80
2019-02-24T11:54:32.723Z,13.00
2019-02-24T12:00:15.838Z,13.10
2019-02-24T12:03:17.063Z,13.20
2019-02-24T12:06:17.673Z,13.20
2019-02-24T12:09:18.305Z,13.30
2019-02-24T12:12:19.578Z,13.40
2019-02-24T12:15:20.090Z,13.50
2019-02-24T12:21:59.774Z,13.30
2019-02-24T12:25:00.715Z,13.40
2019-02-24T12:30:46.513Z,13.70
2019-02-24T12:36:31.622Z,13.80
2019-02-24T12:39:31.798Z,13.70
2019-02-24T12:45:16.659Z,13.90
2019-02-24T12:51:02.526Z,13.90
2019-02-24T12:56:47.370Z,13.80
2019-02-24T12:59:46.666Z,13.80
2019-02-24T13:05:31.238Z,13.80
2019-02-24T13:11:16.802Z,14.20
2019-02-24T13:17:01.568Z,14.40
2019-02-24T13:26:11.375Z,14.50
2019-02-24T13:31:56.974Z,14.40
2019-02-24T13:37:42.663Z,14.60
2019-02-24T13:40:45.207Z,14.50
2019-02-24T13:46:38.905Z,14.70
2019-02-24T13:52:23.978Z,14.80
2019-02-24T13:58:08.606Z,15.00
2019-02-24T14:01:09.274Z,15.00
2019-02-24T14:13:17.416Z,15.30
2019-02-24T14:16:23.782Z,15.40
2019-02-24T14:22:09.819Z,15.20
2019-02-24T14:27:55.978Z,15.00
2019-02-24T14:33:42.061Z,15.10
2019-02-24T14:36:43.302Z,15.20
2019-02-24T14:42:28.095Z,15.20
2019-02-24T14:48:13.626Z,15.30
2019-02-24T14:54:04.126Z,15.10
2019-02-24T14:57:05.292Z,15.00
2019-02-24T15:00:06.547Z,14.80
2019-02-24T15:03:06.983Z,14.70
2019-02-24T15:08:51.635Z,14.60
2019-02-24T15:14:41.857Z,14.60
2019-02-24T15:17:43.114Z,14.70
2019-02-24T15:23:27.866Z,14.60
2019-02-24T15:29:13.346Z,14.50
2019-02-24T15:32:14.487Z,14.60
2019-02-24T15:35:15.487Z,14.50
2019-02-24T15:38:16.506Z,14.50
2019-02-24T15:44:02.026Z,14.60
2019-02-24T15:49:47.536Z,14.90
2019-02-24T15:55:27.822Z,15.10
2019-02-24T15:58:28.356Z,15.20
2019-02-24T16:04:13.054Z,15.20
2019-02-24T16:09:57.705Z,15.30
2019-02-24T16:12:58.845Z,15.00
2019-02-24T16:15:59.490Z,14.80
2019-02-24T16:19:05.588Z,14.50
2019-02-24T16:24:51.132Z,14.10
2019-02-24T16:30:35.622Z,13.90
2019-02-24T16:33:36.810Z,13.80
2019-02-24T16:39:21.819Z,13.30
2019-02-24T16:45:06.599Z,12.90
2019-02-24T16:50:51.977Z,12.60
2019-02-24T16:53:52.661Z,12.50
2019-02-24T16:56:53.898Z,12.40
2019-02-24T16:59:54.519Z,12.30
2019-02-24T17:05:40.032Z,12.00
2019-02-24T17:11:24.684Z,11.90
2019-02-24T17:14:25.943Z,11.80
2019-02-24T17:20:11.294Z,11.60
2019-02-24T17:25:56.867Z,11.40
2019-02-24T17:31:42.361Z,11.20
2019-02-24T17:34:43.422Z,11.10
2019-02-24T17:40:28.198Z,10.90
2019-02-24T17:46:14.011Z,10.60
2019-02-24T17:55:06.270Z,10.30
2019-02-24T18:01:46.717Z,10.10
2019-02-24T18:04:48.344Z,10.10
2019-02-24T18:10:28.530Z,9.90
2019-02-24T18:16:13.871Z,9.80
2019-02-24T18:22:00.162Z,9.60
2019-02-24T18:25:03.524Z,9.60
2019-02-24T18:30:48.377Z,9.40
2019-02-24T18:36:33.346Z,9.40
2019-02-24T18:39:34.647Z,9.30
2019-02-24T18:42:35.514Z,9.30
2019-02-24T18:45:34.604Z,9.10
2019-02-24T18:51:20.091Z,9.10
2019-02-24T18:57:05.294Z,8.90
2019-02-24T19:02:50.830Z,8.80
2019-02-24T19:05:52.130Z,8.80
2019-02-24T19:11:38.046Z,8.60
2019-02-24T19:17:23.054Z,8.50
2019-02-24T19:23:08.599Z,8.30
2019-02-24T19:28:48.845Z,8.20
2019-02-24T19:34:34.518Z,8.20
2019-02-24T19:40:41.480Z,8.10
2019-02-24T19:43:41.970Z,8.10
2019-02-24T19:49:26.756Z,7.90
2019-02-24T19:55:11.774Z,7.90
2019-02-24T19:58:13.088Z,7.80
2019-02-24T20:03:57.811Z,7.70
2019-02-24T20:09:45.535Z,7.70
2019-02-24T20:15:30.230Z,7.60
2019-02-24T20:18:31.674Z,7.50
2019-02-24T20:24:17.611Z,7.50
2019-02-24T20:30:02.263Z,7.40
2019-02-24T20:35:47.809Z,7.30
2019-02-24T20:38:49.044Z,7.30
2019-02-24T20:44:33.914Z,7.20
2019-02-24T20:50:18.951Z,7.20
2019-02-24T20:53:20.286Z,7.20
2019-02-24T20:56:21.056Z,7.10
2019-02-24T20:59:22.320Z,7.00
2019-02-24T21:05:07.759Z,6.80
2019-02-24T21:10:53.335Z,6.90
2019-02-24T21:16:37.882Z,6.90
2019-02-24T21:19:39.126Z,6.90
2019-02-24T21:25:24.899Z,6.70
2019-02-24T21:34:20.675Z,6.60
2019-02-24T21:37:21.351Z,6.60
2019-02-24T21:40:23.518Z,6.60
2019-02-24T21:43:28.108Z,6.50
2019-02-24T21:46:34.556Z,6.10
2019-02-24T21:49:35.834Z,5.90
2019-02-24T21:52:38.260Z,6.20
2019-02-24T21:55:38.933Z,6.30
2019-02-24T21:58:40.059Z,6.30
2019-02-24T22:01:40.732Z,6.30
2019-02-24T22:07:25.600Z,6.20
2019-02-24T22:10:26.706Z,6.10
2019-02-24T22:13:32.251Z,6.10
2019-02-24T22:16:32.671Z,6.10
2019-02-24T22:22:17.514Z,6.10
2019-02-24T22:28:02.607Z,5.90
2019-02-24T22:33:42.895Z,5.90
2019-02-24T22:39:27.352Z,5.90
2019-02-24T22:42:28.707Z,5.90
2019-02-24T22:48:13.765Z,5.80
2019-02-24T22:51:14.206Z,5.80
2019-02-24T22:54:14.939Z,5.70
2019-02-24T23:00:00.474Z,5.70
2019-02-24T23:03:01.006Z,5.70
2019-02-24T23:06:02.163Z,5.70
2019-02-24T23:09:02.858Z,5.60
2019-02-24T23:14:47.666Z,5.60
2019-02-24T23:17:48.959Z,5.60
2019-02-24T23:20:48.631Z,5.60
2019-02-24T23:23:49.942Z,5.60
2019-02-24T23:26:51.205Z,5.60
2019-02-24T23:29:52.069Z,5.50
2019-02-24T23:35:36.957Z,5.40
2019-02-24T23:38:38.158Z,5.40
2019-02-24T23:44:23.849Z,5.30
2019-02-24T23:47:25.002Z,5.30
2019-02-24T23:50:25.595Z,5.30
2019-02-24T23:53:26.818Z,5.30
2019-02-24T23:56:27.527Z,5.20
